Vreme - Novo mesto - 190m - DAVIS Vantage Pro2
Weather data: current ponedeljek, 24.09.2018 19:50
Date Time Temp. O. Hum. O. Baro. Rain Wind Direction Direction Wind gust
24.09.2018 19:50 11,0 C 86 % 1028,6 hPa 0,0 mm 0,0 km/h W-SW 245 3,2 km/h
24.09.2018 18:50 13,3 C 74 % 1027,6 hPa 0,0 mm 3,2 km/h SW 225 8,0 km/h
24.09.2018 17:50 14,6 C 68 % 1027,1 hPa 0,0 mm 3,2 km/h S 180 6,4 km/h
24.09.2018 16:50 14,1 C 71 % 1026,5 hPa 0,0 mm 4,8 km/h SE 135 11,3 km/h
24.09.2018 15:50 14,2 C 69 % 1026,3 hPa 0,0 mm 4,8 km/h S-SE 155 11,3 km/h
24.09.2018 14:50 12,9 C 77 % 1026,7 hPa 0,0 mm 8,0 km/h SE 135 19,3 km/h
24.09.2018 13:50 13,3 C 80 % 1026,3 hPa 0,0 mm 4,8 km/h S-SE 155 16,1 km/h
24.09.2018 12:50 13,7 C 75 % 1026,4 hPa 0,0 mm 14,5 km/h E-NE 65 19,3 km/h
24.09.2018 11:50 13,1 C 80 % 1025,4 hPa 0,0 mm 19,3 km/h NE 45 30,6 km/h
24.09.2018 10:50 12,2 C 87 % 1024,5 hPa 0,3 mm 24,1 km/h NE 45 35,4 km/h
24.09.2018 09:50 12,9 C 92 % 1022,5 hPa 0,3 mm 20,9 km/h NE 45 30,6 km/h
24.09.2018 08:50 13,4 C 95 % 1019,4 hPa 1,3 mm 3,2 km/h E 90 8,0 km/h
24.09.2018 07:50 13,9 C 95 % 1017,1 hPa 7,1 mm 16,1 km/h NE 45 25,7 km/h
24.09.2018 06:50 14,2 C 95 % 1015,1 hPa 31,2 mm 19,3 km/h NE 45 27,4 km/h
24.09.2018 05:50 15,4 C 93 % 1012,8 hPa 3,6 mm 32,2 km/h NE 45 45,1 km/h
24.09.2018 04:50 15,3 C 93 % 1011,1 hPa 0,0 mm 17,7 km/h E-NE 65 27,4 km/h
24.09.2018 03:50 14,6 C 94 % 1009,7 hPa 0,0 mm 3,2 km/h NE 45 6,4 km/h
24.09.2018 02:50 14,2 C 94 % 1009,8 hPa 0,0 mm 8,0 km/h NE 45 14,5 km/h
24.09.2018 01:50 13,8 C 93 % 1009,5 hPa 0,0 mm 1,6 km/h NE 45 4,8 km/h
24.09.2018 00:50 14,1 C 93 % 1010,4 hPa 0,0 mm 3,2 km/h S 180 6,4 km/h
23.09.2018 23:50 14,6 C 91 % 1012,2 hPa 0,0 mm 6,4 km/h SW 225 14,5 km/h
23.09.2018 22:50 14,4 C 91 % 1012,0 hPa 0,0 mm 6,4 km/h SW 225 11,3 km/h
23.09.2018 21:50 14,7 C 91 % 1012,8 hPa 0,0 mm 6,4 km/h S-SW 200 11,3 km/h
23.09.2018 20:50 15,4 C 89 % 1013,5 hPa 0,0 mm 8,0 km/h S-SW 200 14,5 km/h
23.09.2018 20:00 15,9 C 86 % 1014,2 hPa 0,0 mm 6,4 km/h S 180 9,7 km/h
_ Min-Time 19:50 18:00 01:40 - 01:40 - - 01:40
Minimum _ 11,0 C 67 % 1009,3 hPa - 0,0 km/h - - 3,2 km/h
_ Max-Time 05:10 02:40 19:40 06:00 05:50 - - 06:00
Maximum _ 16,1 C 95 % 1028,6 hPa 8,9 mm 32,2 km/h
NE
- - 46,7 km/h
NE
Average _ 14,0 C 86 % 1018,7 hPa #43,7 mm 9,3 km/h NE - 16,3 km/h